Delta Virtual Airport Information Service

Ontario International Airport

ICAO: KONT Country: United States
Latitude: 34.056 Longitude: -117.601
Latest Arrival : UPS833 (B) (KSLC-KONT) Latest Departure : AAL524 (B) (KONT-KPHX)


WX CaptureLIVE
Data provided by noaa.gov | Fetched at 03:37:30

METAR : KONT 030853Z 28004KT 1/8SM R26L/0800V1600FT FG VV002 09/09 A3010 RMK AO2 SLP188 T00940089 58005 $

TAF : KONT 030823Z 0308/0412 VRB03KT 1SM BR BKN005 TEMPO 0309/0312 1/4SM FG OVC002 FM031700 VRB04KT 5SM HZ FEW007 SCT200 FM032100 27011KT P6SM SKC FM040400 VRB05KT 6SM HZ FEW010 FM040800 VRB03KT 4SM BR BKN007


Runway Data for KONT
Data provided by openaviationdata.com

Runway ID Mag Var Hdg Length Elevation Surface ILS Freq ILS Id ILS Slope
08L 14 75° 12185 ft 944 ft Asphalt 109.7 IAOD 3
08R 14 75° 10187 ft 944 ft Concrete -- -- --
26L 14 255° 10187 ft 944 ft Concrete 111.35 ITWO 3
26R 14 255° 12185 ft 944 ft Asphalt 109.7 IONT 3

Ontario International Airport, United States
Use only for reference purposes



Not for navigational purposes.